KOXI

Details ICAO KOXI
Name STARKE CO
Region United States
Timezone America/Indiana/Knox (UTC-5.0)
Plans Departing 3
Arriving 1
Stats Elevation 684 ft / 208 m (AMSL)
Location 41.330141° -86.665262°
Runways 2
Magnetic Variation 4.625° W
Sunrise 2018-05-20 10:24:53 UTC / 2018-05-20 05:24:53 Local
Sunset 2018-05-21 01:04:21 UTC / 2018-05-20 20:04:21 Local
Advertisement - Login to hide

Runways

ID Width Length Bearing (true) Bearing (mag) Surface Threshold Offset Overrun Length
09 145 ft / 44 m 3,078 ft / 938 m 89.88° 94.50° Grass 290 ft / 88 m 0 ft / 0 m
18 75 ft / 23 m 4,406 ft / 1,343 m 179.97° 184.59° Asphalt 0 ft / 0 m 0 ft / 0 m
27 145 ft / 44 m 3,078 ft / 938 m 269.89° 274.51° Grass 0 ft / 0 m 0 ft / 0 m
36 75 ft / 23 m 4,406 ft / 1,343 m 359.97° 4.59° Asphalt 0 ft / 0 m 0 ft / 0 m

Map

Weather


0- 5 10 15 20 25 30 35+ Temperature / ° C

Clouds and Precipitation
Forecast for 2018-05-20 18:00 UTC. Updated 5 hours ago

Ground ~20,000 ft ~40,000 ft Winds

METAR

KOXI 202135Z AUTO 00000KT 7SM BKN011 BKN020 17/14 A3015 RMK AO1

TAF

Not found

Frequencies

Unicom 122.80 MHz CTAF/UNICOM
Approach 132.05 MHz SOUTH BEND APP/DEP
Warning: Do not use this data for real-world aviation or navigation. No guarantee of current accuracy is given.